createdAt,value
2022-11-19T00:01:19.645Z,5.60
2022-11-19T00:03:52.137Z,5.60
2022-11-19T00:06:26.776Z,5.50
2022-11-19T00:08:54.315Z,5.50
2022-11-19T00:11:41.930Z,5.50
2022-11-19T00:14:09.839Z,5.50
2022-11-19T00:16:37.035Z,5.50
2022-11-19T00:19:04.516Z,5.50
2022-11-19T00:21:31.705Z,5.50
2022-11-19T00:23:58.993Z,5.50
2022-11-19T00:26:26.273Z,5.60
2022-11-19T00:28:54.033Z,5.50
2022-11-19T00:31:21.217Z,5.50
2022-11-19T00:33:50.546Z,5.50
2022-11-19T00:36:17.833Z,5.50
2022-11-19T00:38:45.073Z,5.40
2022-11-19T00:41:12.342Z,5.40
2022-11-19T00:43:48.896Z,5.40
2022-11-19T00:46:21.273Z,5.40
2022-11-19T00:48:49.444Z,5.40
2022-11-19T00:51:17.239Z,5.40
2022-11-19T00:53:44.613Z,5.40
2022-11-19T00:56:13.536Z,5.40
2022-11-19T00:58:41.472Z,5.50
2022-11-19T01:01:09.024Z,5.50
2022-11-19T01:03:36.923Z,5.50
2022-11-19T01:06:04.350Z,5.50
2022-11-19T01:08:31.556Z,5.50
2022-11-19T01:11:12.921Z,5.50
2022-11-19T01:13:40.253Z,5.50
2022-11-19T01:16:15.084Z,5.50
2022-11-19T01:18:42.607Z,5.50
2022-11-19T01:21:10.761Z,5.50
2022-11-19T01:23:39.056Z,5.50
2022-11-19T01:26:06.276Z,5.50
2022-11-19T01:28:33.532Z,5.60
2022-11-19T01:31:00.769Z,5.60
2022-11-19T01:33:27.963Z,5.60
2022-11-19T01:35:59.582Z,5.60
2022-11-19T01:38:27.341Z,5.60
2022-11-19T01:40:54.538Z,5.70
2022-11-19T01:43:49.015Z,5.70
2022-11-19T01:46:20.099Z,5.70
2022-11-19T01:49:00.441Z,5.70
2022-11-19T01:51:33.203Z,5.70
2022-11-19T01:54:05.815Z,5.70
2022-11-19T01:56:33.043Z,5.70
2022-11-19T01:59:05.487Z,5.80
2022-11-19T02:01:32.818Z,5.80
2022-11-19T02:04:01.189Z,5.80
2022-11-19T02:06:29.125Z,5.80
2022-11-19T02:08:56.469Z,5.70
2022-11-19T02:11:35.881Z,5.70
2022-11-19T02:14:33.865Z,5.80
2022-11-19T02:17:12.974Z,5.80
2022-11-19T02:19:58.161Z,5.80
2022-11-19T02:22:34.553Z,5.80
2022-11-19T02:25:17.337Z,5.80
2022-11-19T02:28:22.965Z,5.80
2022-11-19T02:30:50.997Z,5.80
2022-11-19T02:33:34.693Z,5.80
2022-11-19T02:36:34.330Z,5.80
2022-11-19T02:39:25.893Z,5.80
2022-11-19T02:41:58.729Z,5.80
2022-11-19T02:44:53.677Z,5.80
2022-11-19T02:47:22.607Z,5.80
2022-11-19T02:49:51.105Z,5.80
2022-11-19T02:52:18.337Z,5.80
2022-11-19T02:54:45.552Z,5.80
2022-11-19T02:57:13.048Z,5.80
2022-11-19T03:00:01.235Z,5.70
2022-11-19T03:02:55.541Z,5.70
2022-11-19T03:05:24.709Z,5.70
2022-11-19T03:07:51.922Z,5.70
2022-11-19T03:10:19.924Z,5.70
2022-11-19T03:12:59.033Z,5.70
2022-11-19T03:15:51.646Z,5.80
2022-11-19T03:18:39.736Z,5.80
2022-11-19T03:21:09.025Z,5.80
2022-11-19T03:23:44.775Z,5.80
2022-11-19T03:26:32.583Z,5.80
2022-11-19T03:29:01.933Z,5.70
2022-11-19T03:31:29.178Z,5.80
2022-11-19T03:33:58.757Z,5.70
2022-11-19T03:36:39.505Z,5.70
2022-11-19T03:39:14.390Z,5.70
2022-11-19T03:41:41.945Z,5.70
2022-11-19T03:44:15.069Z,5.70
2022-11-19T03:46:42.256Z,5.70
2022-11-19T03:49:09.545Z,5.70
2022-11-19T03:51:39.716Z,5.70
2022-11-19T03:54:06.993Z,5.70
2022-11-19T03:56:36.761Z,5.70
2022-11-19T03:59:04.544Z,5.60
2022-11-19T04:01:33.493Z,5.70
2022-11-19T04:04:19.251Z,5.70
2022-11-19T04:06:46.430Z,5.70
2022-11-19T04:09:13.673Z,5.60
2022-11-19T04:11:40.828Z,5.70
2022-11-19T04:14:08.056Z,5.70
2022-11-19T04:16:35.231Z,5.70
2022-11-19T04:19:02.442Z,5.60
2022-11-19T04:21:29.687Z,5.70
2022-11-19T04:23:56.889Z,5.70
2022-11-19T04:26:24.068Z,5.70
2022-11-19T04:28:51.239Z,5.70
2022-11-19T04:31:18.408Z,5.70
2022-11-19T04:33:45.639Z,5.70
2022-11-19T04:36:12.926Z,5.60
2022-11-19T04:38:40.181Z,5.60
2022-11-19T04:41:07.836Z,5.60
2022-11-19T04:43:35.056Z,5.60
2022-11-19T04:46:02.254Z,5.50
2022-11-19T04:48:29.442Z,5.50
2022-11-19T04:50:56.630Z,5.50
2022-11-19T04:53:23.846Z,5.40
2022-11-19T04:55:51.029Z,5.40
2022-11-19T04:58:18.204Z,5.30
2022-11-19T05:00:45.386Z,5.30
2022-11-19T05:03:12.623Z,5.30
2022-11-19T05:05:39.842Z,5.30
2022-11-19T05:08:07.022Z,5.30
2022-11-19T05:10:34.197Z,5.30
2022-11-19T05:13:01.400Z,5.40
2022-11-19T05:15:28.570Z,5.30
2022-11-19T05:17:55.765Z,5.30
2022-11-19T05:20:22.949Z,5.30
2022-11-19T05:22:50.122Z,5.30
2022-11-19T05:25:17.395Z,5.30
2022-11-19T05:27:44.634Z,5.20
2022-11-19T05:30:12.114Z,5.20
2022-11-19T05:32:39.467Z,5.20
2022-11-19T05:35:07.218Z,5.30
2022-11-19T05:37:34.421Z,5.30
2022-11-19T05:40:01.674Z,5.30
2022-11-19T05:42:28.893Z,5.30
2022-11-19T05:44:56.069Z,5.30
2022-11-19T05:47:23.257Z,5.20
2022-11-19T05:49:50.485Z,5.30
2022-11-19T05:52:17.684Z,5.20
2022-11-19T05:54:44.873Z,5.20
2022-11-19T05:57:12.051Z,5.20
2022-11-19T05:59:43.495Z,5.20
2022-11-19T06:02:11.440Z,5.20
2022-11-19T06:04:38.673Z,5.20
2022-11-19T06:07:05.877Z,5.20
2022-11-19T06:09:33.125Z,5.20
2022-11-19T06:12:00.309Z,5.20
2022-11-19T06:14:27.708Z,5.20
2022-11-19T06:16:56.919Z,5.30
2022-11-19T06:19:24.317Z,5.30
2022-11-19T06:21:51.706Z,5.20
2022-11-19T06:24:18.926Z,5.20
2022-11-19T06:26:46.133Z,5.20
2022-11-19T06:29:13.906Z,5.20
2022-11-19T06:31:41.120Z,5.30
2022-11-19T06:34:08.504Z,5.30
2022-11-19T06:36:40.969Z,5.30
2022-11-19T06:39:09.577Z,5.30
2022-11-19T06:41:36.804Z,5.40
2022-11-19T06:44:04.121Z,5.30
2022-11-19T06:46:31.456Z,5.30
2022-11-19T06:48:58.669Z,5.40
2022-11-19T06:51:25.878Z,5.40
2022-11-19T06:53:53.084Z,5.50
2022-11-19T06:56:20.253Z,5.60
2022-11-19T06:58:47.445Z,5.60
2022-11-19T07:01:15.150Z,5.60
2022-11-19T07:03:42.659Z,5.60
2022-11-19T07:06:10.003Z,5.60
2022-11-19T07:08:37.728Z,5.60
2022-11-19T07:11:24.940Z,5.60
2022-11-19T07:13:58.278Z,5.60
2022-11-19T07:16:43.631Z,5.70
2022-11-19T07:19:10.802Z,5.70
2022-11-19T07:21:38.032Z,5.80
2022-11-19T07:24:06.963Z,5.80
2022-11-19T07:26:34.295Z,5.80
2022-11-19T07:29:04.781Z,5.80
2022-11-19T07:31:33.157Z,5.80
2022-11-19T07:34:00.541Z,5.80
2022-11-19T07:36:27.724Z,5.80
2022-11-19T07:38:54.900Z,5.80
2022-11-19T07:41:48.103Z,5.80
2022-11-19T07:44:15.394Z,5.90
2022-11-19T07:46:42.607Z,6.00
2022-11-19T07:49:09.802Z,6.00
2022-11-19T07:51:37.050Z,6.10
2022-11-19T07:54:04.323Z,6.10
2022-11-19T07:56:31.510Z,6.20
2022-11-19T07:59:01.737Z,6.20
2022-11-19T08:01:29.331Z,6.20
2022-11-19T08:03:57.041Z,6.30
2022-11-19T08:06:25.660Z,6.30
2022-11-19T08:08:53.694Z,6.30
2022-11-19T08:11:20.878Z,6.30
2022-11-19T08:13:48.200Z,6.40
2022-11-19T08:16:34.851Z,6.40
2022-11-19T08:19:03.055Z,6.40
2022-11-19T08:21:30.219Z,6.50
2022-11-19T08:23:57.459Z,6.60
2022-11-19T08:26:24.650Z,6.70
2022-11-19T08:28:51.845Z,6.80
2022-11-19T08:31:19.063Z,6.80
2022-11-19T08:33:46.260Z,6.90
2022-11-19T08:36:13.481Z,7.00
2022-11-19T08:38:40.701Z,7.10
2022-11-19T08:41:26.718Z,7.20
2022-11-19T08:43:53.932Z,7.20
2022-11-19T08:46:21.138Z,7.30
2022-11-19T08:48:48.377Z,7.30
2022-11-19T08:51:16.444Z,7.20
2022-11-19T08:53:43.715Z,7.20
2022-11-19T08:56:13.984Z,7.30
2022-11-19T08:58:45.146Z,7.30
2022-11-19T09:01:13.181Z,7.40
2022-11-19T09:03:40.467Z,7.50
2022-11-19T09:06:07.939Z,7.60
2022-11-19T09:08:35.412Z,7.70
2022-11-19T09:11:28.966Z,7.80
2022-11-19T09:13:57.699Z,7.90
2022-11-19T09:16:24.950Z,8.00
2022-11-19T09:18:52.134Z,8.00
2022-11-19T09:21:19.349Z,7.90
2022-11-19T09:23:46.546Z,7.80
2022-11-19T09:26:19.542Z,7.80
2022-11-19T09:28:46.832Z,7.90
2022-11-19T09:31:18.291Z,8.00
2022-11-19T09:33:47.442Z,8.10
2022-11-19T09:36:14.965Z,8.20
2022-11-19T09:38:42.447Z,8.30
2022-11-19T09:41:37.632Z,8.40
2022-11-19T09:44:30.689Z,8.50
2022-11-19T09:47:16.561Z,8.50
2022-11-19T09:50:17.051Z,8.50
2022-11-19T09:52:47.412Z,8.30
2022-11-19T09:55:17.496Z,8.10
2022-11-19T09:57:53.020Z,8.10
2022-11-19T10:00:22.453Z,8.00
2022-11-19T10:02:50.008Z,7.90
2022-11-19T10:05:23.058Z,7.90
2022-11-19T10:08:02.434Z,7.90
2022-11-19T10:10:45.549Z,7.80
2022-11-19T10:13:27.872Z,7.80
2022-11-19T10:16:44.402Z,7.90
2022-11-19T10:19:15.574Z,7.80
2022-11-19T10:21:42.941Z,7.80
2022-11-19T10:24:18.037Z,7.90
2022-11-19T10:26:53.561Z,8.00
2022-11-19T10:29:23.002Z,8.00
2022-11-19T10:31:50.777Z,8.00
2022-11-19T10:34:28.242Z,8.00
2022-11-19T10:36:57.751Z,8.00
2022-11-19T10:39:32.346Z,8.00
2022-11-19T10:42:21.150Z,8.00
2022-11-19T10:45:03.384Z,8.10
2022-11-19T10:47:36.093Z,8.10
2022-11-19T10:50:09.857Z,8.10
2022-11-19T10:52:39.706Z,8.10
2022-11-19T10:55:39.298Z,8.10
2022-11-19T10:58:16.591Z,8.10
2022-11-19T11:00:43.857Z,8.10
2022-11-19T11:03:43.991Z,8.10
2022-11-19T11:06:12.085Z,8.10
2022-11-19T11:08:49.526Z,8.10
2022-11-19T11:11:25.021Z,8.00
2022-11-19T11:14:10.752Z,8.00
2022-11-19T11:16:46.623Z,8.00
2022-11-19T11:19:18.229Z,8.10
2022-11-19T11:21:45.707Z,8.20
2022-11-19T11:24:13.167Z,8.20
2022-11-19T11:26:40.501Z,8.20
2022-11-19T11:29:13.713Z,8.20
2022-11-19T11:31:42.860Z,8.20
2022-11-19T11:34:28.890Z,8.20
2022-11-19T11:36:56.669Z,8.30
2022-11-19T11:39:31.666Z,8.30
2022-11-19T11:42:07.380Z,8.40
2022-11-19T11:44:36.735Z,8.40
2022-11-19T11:47:11.420Z,8.40
2022-11-19T11:49:42.875Z,8.40
2022-11-19T11:52:28.700Z,8.40
2022-11-19T11:55:07.200Z,8.20
2022-11-19T11:57:49.908Z,8.20
2022-11-19T12:00:49.505Z,8.10
2022-11-19T12:03:20.548Z,8.30
2022-11-19T12:05:50.849Z,8.30
2022-11-19T12:08:35.545Z,8.50
2022-11-19T12:11:22.289Z,8.70
2022-11-19T12:13:59.030Z,8.80
2022-11-19T12:17:04.410Z,8.90
2022-11-19T12:19:41.172Z,8.80
2022-11-19T12:22:24.032Z,8.80
2022-11-19T12:24:51.192Z,8.60
2022-11-19T12:27:26.467Z,8.40
2022-11-19T12:29:59.600Z,8.20
2022-11-19T12:33:04.407Z,8.20
2022-11-19T12:35:34.314Z,8.30
2022-11-19T12:38:52.847Z,8.30
2022-11-19T12:41:25.931Z,8.30
2022-11-19T12:43:57.244Z,8.40
2022-11-19T12:46:36.540Z,8.60
2022-11-19T12:49:22.168Z,8.70
2022-11-19T12:51:58.540Z,8.80
2022-11-19T12:54:44.538Z,8.70
2022-11-19T12:57:24.119Z,8.70
2022-11-19T13:00:15.579Z,8.60
2022-11-19T13:02:52.059Z,8.60
2022-11-19T13:05:30.410Z,8.50
2022-11-19T13:08:01.595Z,8.50
2022-11-19T13:10:34.614Z,8.40
2022-11-19T13:13:01.993Z,8.30
2022-11-19T13:15:40.262Z,8.30
2022-11-19T13:18:10.938Z,8.30
2022-11-19T13:21:06.176Z,8.20
2022-11-19T13:23:46.450Z,8.20
2022-11-19T13:26:18.123Z,8.00
2022-11-19T13:29:13.631Z,8.00
2022-11-19T13:32:07.150Z,7.90
2022-11-19T13:34:49.441Z,7.90
2022-11-19T13:37:20.780Z,7.90
2022-11-19T13:39:53.458Z,7.80
2022-11-19T13:42:39.546Z,7.70
2022-11-19T13:45:12.850Z,7.70
2022-11-19T13:47:58.396Z,7.70
2022-11-19T13:50:36.660Z,7.80
2022-11-19T13:53:28.145Z,7.90
2022-11-19T13:55:56.206Z,8.10
2022-11-19T13:58:47.405Z,8.10
2022-11-19T14:01:24.655Z,8.30
2022-11-19T14:04:00.914Z,8.40
2022-11-19T14:06:37.670Z,8.50
2022-11-19T14:09:13.684Z,8.60
2022-11-19T14:11:40.856Z,8.50
2022-11-19T14:14:33.633Z,8.50
2022-11-19T14:17:31.018Z,8.40
2022-11-19T14:20:16.981Z,8.30
2022-11-19T14:23:15.441Z,8.30
2022-11-19T14:26:01.970Z,8.20
2022-11-19T14:28:44.282Z,8.30
2022-11-19T14:31:11.588Z,8.20
2022-11-19T14:33:41.826Z,8.20
2022-11-19T14:36:12.631Z,8.20
2022-11-19T14:38:42.036Z,8.30
2022-11-19T14:41:26.262Z,8.30
2022-11-19T14:44:09.488Z,8.30
2022-11-19T14:46:47.030Z,8.30
2022-11-19T14:49:18.929Z,8.20
2022-11-19T14:51:48.666Z,8.20
2022-11-19T14:54:15.913Z,8.20
2022-11-19T14:56:45.762Z,8.20
2022-11-19T14:59:19.725Z,8.20
2022-11-19T15:01:57.545Z,8.30
2022-11-19T15:04:30.007Z,8.20
2022-11-19T15:06:57.361Z,8.20
2022-11-19T15:09:53.271Z,8.10
2022-11-19T15:12:21.298Z,8.00
2022-11-19T15:15:06.946Z,8.00
2022-11-19T15:17:35.294Z,8.00
2022-11-19T15:20:34.678Z,7.90
2022-11-19T15:23:13.214Z,7.90
2022-11-19T15:25:52.820Z,7.90
2022-11-19T15:28:29.046Z,7.90
2022-11-19T15:31:05.077Z,7.90
2022-11-19T15:33:39.939Z,7.80
2022-11-19T15:36:17.994Z,7.80
2022-11-19T15:38:50.546Z,7.80
2022-11-19T15:41:22.622Z,7.80
2022-11-19T15:43:52.111Z,7.70
2022-11-19T15:46:50.542Z,7.80
2022-11-19T15:49:24.944Z,7.70
2022-11-19T15:51:58.017Z,7.70
2022-11-19T15:54:32.693Z,7.70
2022-11-19T15:57:23.705Z,7.60
2022-11-19T15:59:59.670Z,7.60
2022-11-19T16:02:33.206Z,7.60
2022-11-19T16:05:00.402Z,7.60
2022-11-19T16:07:29.010Z,7.60
2022-11-19T16:09:56.948Z,7.50
2022-11-19T16:12:44.264Z,7.50
2022-11-19T16:15:43.742Z,7.50
2022-11-19T16:18:15.440Z,7.50
2022-11-19T16:20:46.474Z,7.50
2022-11-19T16:23:19.340Z,7.50
2022-11-19T16:25:46.609Z,7.50
2022-11-19T16:28:15.885Z,7.40
2022-11-19T16:30:50.848Z,7.40
2022-11-19T16:33:25.454Z,7.50
2022-11-19T16:35:53.843Z,7.50
2022-11-19T16:38:26.872Z,7.40
2022-11-19T16:41:13.257Z,7.40
2022-11-19T16:43:41.921Z,7.40
2022-11-19T16:46:09.978Z,7.40
2022-11-19T16:48:49.082Z,7.40
2022-11-19T16:51:35.827Z,7.30
2022-11-19T16:54:04.187Z,7.20
2022-11-19T16:56:45.149Z,7.20
2022-11-19T16:59:20.692Z,7.20
2022-11-19T17:01:52.097Z,7.10
2022-11-19T17:04:19.669Z,7.10
2022-11-19T17:06:47.749Z,7.10
2022-11-19T17:09:33.256Z,7.10
2022-11-19T17:12:18.634Z,7.10
2022-11-19T17:14:50.661Z,7.00
2022-11-19T17:17:39.524Z,7.00
2022-11-19T17:20:32.811Z,7.00
2022-11-19T17:23:00.243Z,7.10
2022-11-19T17:25:27.420Z,7.00
2022-11-19T17:27:55.993Z,7.10
2022-11-19T17:30:24.715Z,7.00
2022-11-19T17:32:56.586Z,7.00
2022-11-19T17:35:43.508Z,7.00
2022-11-19T17:38:11.894Z,7.00
2022-11-19T17:40:59.838Z,7.00
2022-11-19T17:43:58.336Z,7.10
2022-11-19T17:46:27.278Z,7.10
2022-11-19T17:48:54.837Z,7.00
2022-11-19T17:51:23.467Z,7.00
2022-11-19T17:53:51.697Z,6.90
2022-11-19T17:56:28.668Z,6.80
2022-11-19T17:58:56.089Z,6.80
2022-11-19T18:01:23.516Z,6.70
2022-11-19T18:03:50.805Z,6.80
2022-11-19T18:06:18.163Z,6.80
2022-11-19T18:08:45.557Z,6.70
2022-11-19T18:11:13.837Z,6.70
2022-11-19T18:13:41.340Z,6.50
2022-11-19T18:16:16.334Z,6.50
2022-11-19T18:18:43.575Z,6.40
2022-11-19T18:21:15.792Z,6.40
2022-11-19T18:23:44.209Z,6.40
2022-11-19T18:26:15.882Z,6.30
2022-11-19T18:28:43.835Z,6.30
2022-11-19T18:31:22.150Z,6.30
2022-11-19T18:33:49.717Z,6.30
2022-11-19T18:36:17.019Z,6.20
2022-11-19T18:38:44.362Z,6.20
2022-11-19T18:41:12.447Z,6.10
2022-11-19T18:43:58.161Z,6.10
2022-11-19T18:46:25.540Z,6.00
2022-11-19T18:48:53.655Z,6.10
2022-11-19T18:51:21.562Z,6.10
2022-11-19T18:53:48.840Z,6.00
2022-11-19T18:56:16.449Z,6.00
2022-11-19T18:58:43.713Z,6.00
2022-11-19T19:01:11.136Z,6.00
2022-11-19T19:03:38.486Z,6.00
2022-11-19T19:06:06.793Z,6.00
2022-11-19T19:08:34.190Z,5.90
2022-11-19T19:11:21.962Z,6.00
2022-11-19T19:13:49.161Z,6.00
2022-11-19T19:16:16.360Z,5.90
2022-11-19T19:18:43.572Z,5.90
2022-11-19T19:21:14.488Z,5.90
2022-11-19T19:23:41.800Z,5.90
2022-11-19T19:26:09.609Z,5.90
2022-11-19T19:28:36.899Z,5.90
2022-11-19T19:31:04.314Z,5.90
2022-11-19T19:33:31.708Z,5.90
2022-11-19T19:35:58.932Z,5.80
2022-11-19T19:38:26.129Z,5.90
2022-11-19T19:40:53.458Z,5.90
2022-11-19T19:43:20.649Z,5.90
2022-11-19T19:45:49.016Z,5.90
2022-11-19T19:48:16.197Z,5.90
2022-11-19T19:50:50.780Z,5.90
2022-11-19T19:53:17.965Z,5.90
2022-11-19T19:55:45.142Z,5.90
2022-11-19T19:58:12.330Z,5.90
2022-11-19T20:00:39.629Z,5.90
2022-11-19T20:03:06.854Z,6.00
2022-11-19T20:05:34.044Z,6.00
2022-11-19T20:08:01.228Z,6.00
2022-11-19T20:10:28.391Z,6.00
2022-11-19T20:13:14.030Z,6.10
2022-11-19T20:15:41.250Z,6.10
2022-11-19T20:18:08.425Z,6.10
2022-11-19T20:20:35.590Z,6.20
2022-11-19T20:23:02.757Z,6.20
2022-11-19T20:25:29.916Z,6.20
2022-11-19T20:27:57.102Z,6.20
2022-11-19T20:30:24.269Z,6.10
2022-11-19T20:32:51.441Z,6.10
2022-11-19T20:35:19.066Z,6.10
2022-11-19T20:37:46.242Z,6.10
2022-11-19T20:40:13.426Z,6.10
2022-11-19T20:42:59.171Z,6.10
2022-11-19T20:45:26.386Z,6.10
2022-11-19T20:47:53.541Z,6.00
2022-11-19T20:50:20.723Z,6.00
2022-11-19T20:52:47.895Z,6.00
2022-11-19T20:55:15.092Z,6.00
2022-11-19T20:57:42.250Z,6.00
2022-11-19T21:00:10.253Z,6.00
2022-11-19T21:02:37.417Z,6.00
2022-11-19T21:05:05.005Z,6.00
2022-11-19T21:07:32.362Z,5.90
2022-11-19T21:10:04.812Z,5.90
2022-11-19T21:12:34.696Z,5.90
2022-11-19T21:15:02.142Z,5.90
2022-11-19T21:17:29.431Z,5.90
2022-11-19T21:19:56.635Z,5.80
2022-11-19T21:22:23.805Z,5.80
2022-11-19T21:24:50.982Z,5.80
2022-11-19T21:27:18.162Z,5.80
2022-11-19T21:29:45.317Z,5.90
2022-11-19T21:32:12.493Z,5.90
2022-11-19T21:34:41.745Z,5.90
2022-11-19T21:37:08.912Z,5.90
2022-11-19T21:39:36.144Z,5.80
2022-11-19T21:42:03.528Z,5.80
2022-11-19T21:44:30.691Z,5.70
2022-11-19T21:46:57.879Z,5.70
2022-11-19T21:49:25.042Z,5.70
2022-11-19T21:51:53.065Z,5.70
2022-11-19T21:54:20.232Z,5.60
2022-11-19T21:56:47.396Z,5.60
2022-11-19T21:59:14.582Z,5.60
2022-11-19T22:01:41.753Z,5.60
2022-11-19T22:04:09.020Z,5.60
2022-11-19T22:06:36.170Z,5.50
2022-11-19T22:09:03.411Z,5.50
2022-11-19T22:11:31.227Z,5.50
2022-11-19T22:14:06.461Z,5.50
2022-11-19T22:16:35.952Z,5.50
2022-11-19T22:19:03.342Z,5.60
2022-11-19T22:21:30.517Z,5.60
2022-11-19T22:23:57.801Z,5.50
2022-11-19T22:26:25.117Z,5.50
2022-11-19T22:28:52.278Z,5.50
2022-11-19T22:31:19.500Z,5.50
2022-11-19T22:33:49.590Z,5.50
2022-11-19T22:36:16.945Z,5.40
2022-11-19T22:38:44.311Z,5.30
2022-11-19T22:41:13.817Z,5.30
2022-11-19T22:43:41.424Z,5.30
2022-11-19T22:46:09.605Z,5.30
2022-11-19T22:48:36.858Z,5.30
2022-11-19T22:51:05.654Z,5.20
2022-11-19T22:53:35.072Z,5.30
2022-11-19T22:56:03.131Z,5.20
2022-11-19T22:58:30.305Z,5.20
2022-11-19T23:00:57.532Z,5.30
2022-11-19T23:03:24.743Z,5.30
2022-11-19T23:05:52.788Z,5.20
2022-11-19T23:08:20.074Z,5.20
2022-11-19T23:10:47.940Z,5.20
2022-11-19T23:13:34.230Z,5.20
2022-11-19T23:16:01.388Z,5.30
2022-11-19T23:18:29.036Z,5.30
2022-11-19T23:21:01.494Z,5.30
2022-11-19T23:23:28.710Z,5.30
2022-11-19T23:25:57.287Z,5.30
2022-11-19T23:28:25.478Z,5.30
2022-11-19T23:30:52.822Z,5.40
2022-11-19T23:33:20.302Z,5.40
2022-11-19T23:35:47.502Z,5.40
2022-11-19T23:38:15.016Z,5.40
2022-11-19T23:40:42.273Z,5.40
2022-11-19T23:43:09.538Z,5.40
2022-11-19T23:45:36.810Z,5.40
2022-11-19T23:48:04.014Z,5.50
2022-11-19T23:50:31.394Z,5.40
2022-11-19T23:52:58.574Z,5.50
2022-11-19T23:55:25.739Z,5.40
2022-11-19T23:57:52.925Z,5.50
